createdAt,value
2018-05-13T00:01:05.329Z,97.30
2018-05-13T00:03:32.870Z,97.50
2018-05-13T00:06:01.153Z,97.60
2018-05-13T00:08:29.424Z,99.60
2018-05-13T00:10:57.719Z,99.90
2018-05-13T00:13:25.232Z,99.90
2018-05-13T00:15:52.765Z,99.90
2018-05-13T00:18:20.272Z,99.90
2018-05-13T00:20:48.597Z,99.70
2018-05-13T00:23:16.128Z,99.70
2018-05-13T00:25:43.677Z,99.90
2018-05-13T00:28:11.959Z,99.00
2018-05-13T00:30:39.474Z,99.00
2018-05-13T00:33:07.013Z,98.80
2018-05-13T00:35:35.293Z,99.50
2018-05-13T00:38:02.843Z,99.50
2018-05-13T00:40:30.349Z,99.90
2018-05-13T00:42:58.651Z,98.40
2018-05-13T00:45:26.748Z,98.40
2018-05-13T00:47:55.111Z,99.90
2018-05-13T00:50:22.635Z,99.90
2018-05-13T00:52:50.932Z,98.80
2018-05-13T00:55:19.200Z,98.80
2018-05-13T00:57:47.514Z,98.70
2018-05-13T01:00:15.057Z,98.40
2018-05-13T01:02:42.593Z,99.90
2018-05-13T01:05:10.886Z,99.90
2018-05-13T01:07:39.152Z,99.90
2018-05-13T01:10:07.434Z,99.30
2018-05-13T01:12:34.995Z,99.30
2018-05-13T01:15:02.500Z,99.80
2018-05-13T01:17:30.040Z,99.90
2018-05-13T01:19:57.559Z,99.90
2018-05-13T01:22:25.845Z,99.90
2018-05-13T01:24:53.393Z,99.90
2018-05-13T01:27:21.689Z,99.90
2018-05-13T01:29:49.239Z,99.90
2018-05-13T01:32:16.786Z,99.90
2018-05-13T01:34:45.069Z,99.80
2018-05-13T01:37:13.378Z,99.90
2018-05-13T01:39:40.890Z,99.90
2018-05-13T01:42:08.421Z,99.90
2018-05-13T01:44:35.937Z,99.90
2018-05-13T01:47:03.453Z,99.90
2018-05-13T01:49:30.985Z,99.90
2018-05-13T01:51:58.509Z,99.90
2018-05-13T01:54:26.045Z,99.90
2018-05-13T01:56:54.329Z,99.90
2018-05-13T01:59:22.601Z,99.90
2018-05-13T02:01:50.889Z,99.90
2018-05-13T02:04:18.433Z,99.90
2018-05-13T02:06:46.730Z,99.90
2018-05-13T02:09:14.268Z,99.90
2018-05-13T02:11:42.557Z,99.90
2018-05-13T02:14:10.842Z,99.90
2018-05-13T02:16:39.126Z,99.90
2018-05-13T02:19:06.656Z,99.90
2018-05-13T02:21:34.950Z,99.90
2018-05-13T02:24:03.239Z,99.90
2018-05-13T02:26:30.758Z,99.90
2018-05-13T02:28:58.283Z,99.90
2018-05-13T02:31:25.807Z,99.90
2018-05-13T02:33:53.333Z,99.90
2018-05-13T02:36:20.842Z,99.90
2018-05-13T02:38:48.379Z,99.90
2018-05-13T02:41:16.648Z,99.90
2018-05-13T02:43:44.943Z,99.90
2018-05-13T02:46:12.444Z,99.90
2018-05-13T02:48:39.985Z,99.90
2018-05-13T02:51:07.508Z,99.90
2018-05-13T02:53:35.053Z,99.90
2018-05-13T02:56:03.365Z,99.90
2018-05-13T02:58:30.868Z,99.90
2018-05-13T03:00:58.398Z,99.90
2018-05-13T03:03:25.949Z,99.90
2018-05-13T03:05:53.448Z,99.90
2018-05-13T03:08:20.984Z,99.90
2018-05-13T03:10:48.521Z,99.90
2018-05-13T03:13:16.024Z,99.90
2018-05-13T03:15:43.555Z,99.90
2018-05-13T03:18:11.064Z,99.90
2018-05-13T03:20:39.359Z,99.90
2018-05-13T03:23:06.893Z,99.90
2018-05-13T03:25:35.201Z,99.90
2018-05-13T03:28:02.725Z,99.90
2018-05-13T03:30:30.250Z,99.90
2018-05-13T03:32:57.782Z,99.90
2018-05-13T03:35:25.292Z,99.90
2018-05-13T03:37:52.800Z,99.90
2018-05-13T03:40:20.349Z,99.90
2018-05-13T03:42:47.858Z,99.90
2018-05-13T03:45:15.421Z,99.90
2018-05-13T03:47:42.939Z,99.90
2018-05-13T03:50:10.473Z,99.90
2018-05-13T03:52:38.000Z,99.90
2018-05-13T03:55:05.504Z,99.90
2018-05-13T03:57:33.050Z,99.90
2018-05-13T04:00:00.590Z,99.90
2018-05-13T04:02:28.859Z,99.90
2018-05-13T04:04:56.422Z,99.90
2018-05-13T04:07:24.793Z,99.90
2018-05-13T04:10:04.226Z,99.90
2018-05-13T04:12:43.697Z,99.90
2018-05-13T04:15:22.039Z,99.90
2018-05-13T04:17:49.553Z,99.90
2018-05-13T04:20:17.863Z,99.90
2018-05-13T04:22:45.368Z,99.90
2018-05-13T04:25:12.869Z,99.90
2018-05-13T04:27:40.413Z,99.90
2018-05-13T04:30:08.695Z,99.90
2018-05-13T04:32:37.032Z,99.90
2018-05-13T04:35:04.577Z,99.90
2018-05-13T04:37:32.094Z,99.90
2018-05-13T04:39:59.654Z,99.90
2018-05-13T04:42:27.173Z,99.90
2018-05-13T04:44:54.710Z,99.90
2018-05-13T04:47:22.231Z,99.90
2018-05-13T04:49:49.763Z,99.90
2018-05-13T04:52:17.286Z,99.90
2018-05-13T04:54:44.830Z,99.90
2018-05-13T04:57:12.381Z,99.90
2018-05-13T04:59:39.883Z,99.90
2018-05-13T05:02:07.399Z,99.90
2018-05-13T05:04:34.949Z,99.90
2018-05-13T05:07:02.475Z,99.90
2018-05-13T05:09:30.017Z,99.90
2018-05-13T05:11:57.532Z,99.90
2018-05-13T05:14:25.079Z,99.90
2018-05-13T05:16:52.609Z,99.90
2018-05-13T05:19:20.115Z,99.90
2018-05-13T05:21:47.655Z,99.90
2018-05-13T05:24:15.189Z,99.90
2018-05-13T05:26:42.698Z,99.90
2018-05-13T05:29:10.251Z,99.90
2018-05-13T05:31:37.765Z,99.90
2018-05-13T05:34:05.326Z,99.90
2018-05-13T05:36:32.832Z,99.90
2018-05-13T05:39:00.349Z,99.90
2018-05-13T05:41:28.649Z,99.50
2018-05-13T05:43:56.175Z,99.50
2018-05-13T05:46:23.702Z,98.40
2018-05-13T05:48:51.219Z,98.40
2018-05-13T05:51:18.745Z,98.70
2018-05-13T05:53:46.266Z,97.90
2018-05-13T05:56:13.768Z,97.80
2018-05-13T05:58:41.304Z,96.90
2018-05-13T06:01:08.829Z,96.30
2018-05-13T06:03:36.382Z,96.00
2018-05-13T06:06:03.903Z,95.90
2018-05-13T06:08:31.431Z,96.10
2018-05-13T06:10:58.974Z,96.20
2018-05-13T06:13:26.503Z,95.50
2018-05-13T06:15:54.792Z,94.70
2018-05-13T06:18:22.318Z,94.70
2018-05-13T06:20:49.844Z,93.90
2018-05-13T06:23:17.401Z,93.80
2018-05-13T06:25:44.905Z,93.50
2018-05-13T06:28:13.190Z,93.90
2018-05-13T06:30:41.496Z,94.40
2018-05-13T06:33:09.009Z,94.40
2018-05-13T06:35:36.568Z,94.10
2018-05-13T06:38:04.066Z,93.60
2018-05-13T06:40:31.585Z,93.00
2018-05-13T06:43:00.630Z,93.10
2018-05-13T06:45:28.145Z,93.10
2018-05-13T06:50:30.572Z,92.20
2018-05-13T06:52:58.099Z,91.70
2018-05-13T06:55:26.370Z,91.10
2018-05-13T06:57:53.901Z,91.10
2018-05-13T07:00:21.422Z,91.10
2018-05-13T07:02:48.939Z,90.80
2018-05-13T07:05:17.251Z,87.70
2018-05-13T07:07:44.765Z,87.70
2018-05-13T07:10:12.272Z,83.60
2018-05-13T07:12:39.823Z,82.60
2018-05-13T07:15:07.329Z,82.40
2018-05-13T07:17:34.855Z,83.50
2018-05-13T07:20:02.370Z,81.70
2018-05-13T07:22:30.654Z,79.20
2018-05-13T07:24:58.940Z,79.20
2018-05-13T07:27:26.445Z,79.20
2018-05-13T07:29:53.971Z,79.90
2018-05-13T07:32:21.511Z,81.80
2018-05-13T07:34:49.796Z,78.60
2018-05-13T07:37:17.321Z,78.60
2018-05-13T07:39:44.841Z,77.90
2018-05-13T07:42:12.366Z,76.70
2018-05-13T07:44:40.646Z,75.20
2018-05-13T07:47:08.158Z,75.20
2018-05-13T07:49:35.681Z,75.30
2018-05-13T07:52:03.186Z,76.60
2018-05-13T07:54:30.725Z,76.10
2018-05-13T07:56:58.237Z,76.20
2018-05-13T07:59:26.508Z,77.80
2018-05-13T08:01:54.796Z,76.00
2018-05-13T08:04:22.323Z,75.90
2018-05-13T08:06:49.860Z,74.90
2018-05-13T08:09:17.372Z,73.80
2018-05-13T08:11:45.014Z,73.30
2018-05-13T08:14:13.309Z,71.70
2018-05-13T08:16:40.849Z,71.50
2018-05-13T08:19:09.132Z,72.40
2018-05-13T08:21:37.406Z,71.40
2018-05-13T08:24:06.352Z,69.00
2018-05-13T08:26:33.872Z,68.90
2018-05-13T08:29:01.377Z,70.30
2018-05-13T08:31:28.913Z,66.60
2018-05-13T08:33:56.429Z,65.20
2018-05-13T08:36:24.707Z,65.50
2018-05-13T08:38:53.002Z,69.10
2018-05-13T08:41:20.501Z,69.10
2018-05-13T08:43:48.066Z,67.70
2018-05-13T08:46:15.560Z,68.70
2018-05-13T08:48:43.833Z,67.20
2018-05-13T08:51:12.126Z,66.60
2018-05-13T08:53:39.639Z,66.60
2018-05-13T08:56:07.166Z,67.80
2018-05-13T08:58:34.719Z,65.30
2018-05-13T09:01:02.234Z,67.00
2018-05-13T09:03:29.764Z,66.10
2018-05-13T09:05:57.284Z,64.70
2018-05-13T09:08:24.860Z,65.90
2018-05-13T09:10:52.344Z,64.20
2018-05-13T09:13:19.899Z,62.20
2018-05-13T09:15:47.430Z,63.90
2018-05-13T09:18:14.955Z,64.20
2018-05-13T09:23:17.104Z,64.50
2018-05-13T09:25:44.655Z,64.10
2018-05-13T09:28:12.153Z,61.30
2018-05-13T09:30:40.425Z,60.70
2018-05-13T09:33:08.003Z,60.70
2018-05-13T09:35:35.506Z,61.70
2018-05-13T09:38:03.046Z,61.10
2018-05-13T09:40:30.571Z,60.20
2018-05-13T09:42:58.842Z,59.60
2018-05-13T09:45:27.136Z,61.10
2018-05-13T09:47:55.442Z,59.30
2018-05-13T09:50:22.972Z,59.30
2018-05-13T09:52:51.236Z,59.60
2018-05-13T09:55:19.510Z,56.80
2018-05-13T09:57:47.792Z,58.30
2018-05-13T10:00:16.093Z,59.80
2018-05-13T10:02:43.629Z,60.50
2018-05-13T10:05:11.164Z,60.90
2018-05-13T10:07:38.664Z,58.80
2018-05-13T10:10:06.987Z,57.60
2018-05-13T10:12:34.504Z,57.60
2018-05-13T10:15:02.076Z,55.70
2018-05-13T10:17:29.594Z,58.00
2018-05-13T10:19:57.877Z,53.70
2018-05-13T10:22:26.165Z,55.70
2018-05-13T10:24:53.673Z,55.70
2018-05-13T10:27:22.067Z,55.20
2018-05-13T10:29:49.524Z,55.20
2018-05-13T10:32:17.035Z,57.10
2018-05-13T10:34:45.337Z,54.80
2018-05-13T10:37:12.871Z,55.60
2018-05-13T10:39:40.426Z,53.80
2018-05-13T10:42:07.928Z,53.50
2018-05-13T10:44:35.441Z,53.60
2018-05-13T10:47:02.963Z,54.80
2018-05-13T10:49:31.252Z,52.90
2018-05-13T10:51:59.553Z,52.50
2018-05-13T10:54:27.062Z,52.50
2018-05-13T10:56:54.573Z,51.30
2018-05-13T10:59:22.117Z,52.50
2018-05-13T11:01:49.617Z,52.50
2018-05-13T11:04:17.144Z,53.40
2018-05-13T11:06:44.668Z,51.30
2018-05-13T11:09:12.208Z,53.50
2018-05-13T11:11:39.728Z,50.50
2018-05-13T11:14:07.312Z,53.90
2018-05-13T11:16:34.870Z,53.70
2018-05-13T11:19:02.389Z,52.60
2018-05-13T11:21:29.887Z,51.80
2018-05-13T11:23:57.404Z,52.90
2018-05-13T11:26:24.918Z,51.50
2018-05-13T11:28:52.457Z,50.80
2018-05-13T11:31:19.975Z,50.40
2018-05-13T11:33:48.270Z,52.40
2018-05-13T11:36:15.819Z,52.40
2018-05-13T11:38:43.339Z,51.90
2018-05-13T11:41:10.891Z,51.50
2018-05-13T11:43:38.394Z,50.70
2018-05-13T11:46:05.906Z,49.30
2018-05-13T11:48:33.447Z,47.80
2018-05-13T11:51:00.951Z,50.00
2018-05-13T11:53:29.240Z,48.90
2018-05-13T11:55:56.769Z,48.80
2018-05-13T11:58:24.271Z,50.20
2018-05-13T12:00:51.796Z,51.20
2018-05-13T12:03:20.379Z,51.50
2018-05-13T12:05:48.687Z,50.60
2018-05-13T12:08:16.210Z,50.60
2018-05-13T12:10:44.489Z,50.80
2018-05-13T12:13:12.779Z,51.00
2018-05-13T12:15:41.065Z,50.10
2018-05-13T12:18:08.602Z,50.00
2018-05-13T12:20:36.116Z,49.90
2018-05-13T12:23:03.638Z,51.60
2018-05-13T12:25:31.925Z,52.00
2018-05-13T12:27:59.453Z,52.00
2018-05-13T12:30:27.000Z,51.80
2018-05-13T12:32:54.525Z,52.60
2018-05-13T12:35:22.032Z,54.30
2018-05-13T12:37:50.355Z,56.70
2018-05-13T12:40:17.858Z,56.70
2018-05-13T12:42:45.400Z,55.80
2018-05-13T12:45:12.918Z,55.30
2018-05-13T12:47:40.459Z,57.30
2018-05-13T12:50:08.814Z,58.00
2018-05-13T12:52:36.276Z,58.00
2018-05-13T12:55:04.706Z,57.50
2018-05-13T12:57:33.069Z,57.30
2018-05-13T13:00:01.468Z,56.20
2018-05-13T13:02:29.039Z,56.70
2018-05-13T13:04:56.529Z,58.80
2018-05-13T13:07:24.056Z,57.70
2018-05-13T13:09:51.563Z,58.50
2018-05-13T13:12:19.858Z,57.90
2018-05-13T13:14:47.413Z,57.90
2018-05-13T13:17:14.934Z,58.30
2018-05-13T13:19:42.471Z,59.50
2018-05-13T13:22:10.776Z,60.90
2018-05-13T13:24:39.473Z,62.50
2018-05-13T13:27:07.778Z,62.30
2018-05-13T13:29:35.311Z,62.20
2018-05-13T13:32:03.608Z,63.00
2018-05-13T13:34:31.124Z,62.90
2018-05-13T13:36:58.637Z,63.80
2018-05-13T13:39:26.720Z,63.40
2018-05-13T13:41:55.051Z,62.30
2018-05-13T13:44:23.337Z,62.20
2018-05-13T13:46:52.486Z,62.40
2018-05-13T13:49:20.894Z,62.40
2018-05-13T13:51:48.417Z,63.30
2018-05-13T13:54:15.922Z,65.60
2018-05-13T13:56:44.255Z,65.60
2018-05-13T13:59:11.783Z,65.50
2018-05-13T14:01:39.330Z,66.70
2018-05-13T14:04:06.844Z,66.00
2018-05-13T14:06:34.356Z,65.70
2018-05-13T14:09:01.894Z,66.20
2018-05-13T14:11:30.170Z,67.50
2018-05-13T14:13:58.436Z,69.50
2018-05-13T14:16:26.724Z,71.80
2018-05-13T14:18:55.005Z,70.40
2018-05-13T14:21:23.309Z,71.20
2018-05-13T14:23:50.882Z,71.20
2018-05-13T14:26:20.086Z,70.90
2018-05-13T14:28:47.613Z,70.90
2018-05-13T14:31:15.112Z,72.20
2018-05-13T14:33:42.662Z,72.10
2018-05-13T14:36:10.181Z,71.40
2018-05-13T14:38:37.710Z,71.10
2018-05-13T14:41:05.276Z,72.20
2018-05-13T14:43:32.748Z,71.10
2018-05-13T14:46:01.077Z,71.20
2018-05-13T14:48:28.581Z,71.20
2018-05-13T14:50:56.867Z,74.20
2018-05-13T14:53:24.485Z,74.10
2018-05-13T14:55:52.016Z,75.80
2018-05-13T14:58:19.547Z,76.60
2018-05-13T15:00:47.080Z,76.40
2018-05-13T15:03:15.358Z,73.90
2018-05-13T15:05:43.647Z,73.30
2018-05-13T15:08:11.932Z,75.50
2018-05-13T15:10:39.469Z,75.60
2018-05-13T15:13:07.019Z,75.50
2018-05-13T15:15:34.512Z,77.30
2018-05-13T15:18:02.795Z,77.00
2018-05-13T15:20:30.313Z,77.00
2018-05-13T15:22:58.628Z,75.00
2018-05-13T15:25:26.139Z,75.00
2018-05-13T15:27:53.640Z,77.20
2018-05-13T15:30:21.161Z,78.10
2018-05-13T15:32:48.670Z,75.30
2018-05-13T15:35:16.211Z,73.60
2018-05-13T15:37:44.496Z,74.10
2018-05-13T15:40:12.017Z,74.00
2018-05-13T15:42:39.613Z,73.60
2018-05-13T15:45:07.076Z,73.80
2018-05-13T15:47:34.600Z,74.60
2018-05-13T15:50:02.158Z,75.30
2018-05-13T15:52:29.668Z,74.90
2018-05-13T15:57:31.174Z,74.80
2018-05-13T15:59:58.690Z,74.00
2018-05-13T16:02:26.187Z,74.20
2018-05-13T16:04:53.697Z,75.30
2018-05-13T16:07:21.251Z,75.50
2018-05-13T16:09:49.535Z,76.90
2018-05-13T16:12:17.200Z,76.90
2018-05-13T16:14:44.608Z,76.80
2018-05-13T16:17:12.122Z,76.50
2018-05-13T16:19:39.645Z,77.20
2018-05-13T16:22:07.923Z,77.90
2018-05-13T16:24:36.220Z,77.90
2018-05-13T16:27:03.753Z,77.80
2018-05-13T16:29:32.039Z,77.00
2018-05-13T16:32:00.315Z,77.50
2018-05-13T16:34:28.618Z,77.00
2018-05-13T16:36:56.148Z,77.00
2018-05-13T16:39:24.420Z,77.30
2018-05-13T16:41:52.686Z,78.30
2018-05-13T16:44:20.973Z,78.80
2018-05-13T16:46:49.273Z,79.60
2018-05-13T16:49:16.807Z,79.60
2018-05-13T16:51:45.087Z,80.80
2018-05-13T16:54:13.377Z,81.00
2018-05-13T16:56:40.912Z,81.00
2018-05-13T16:59:09.320Z,79.50
2018-05-13T17:01:36.831Z,79.50
2018-05-13T17:04:04.366Z,77.60
2018-05-13T17:06:31.865Z,77.70
2018-05-13T17:09:00.133Z,79.10
2018-05-13T17:11:27.647Z,78.60
2018-05-13T17:13:55.149Z,79.80
2018-05-13T17:16:22.675Z,81.80
2018-05-13T17:18:50.181Z,83.40
2018-05-13T17:21:18.466Z,87.60
2018-05-13T17:23:46.765Z,88.60
2018-05-13T17:26:14.302Z,88.60
2018-05-13T17:28:42.597Z,90.60
2018-05-13T17:31:10.113Z,90.60
2018-05-13T17:33:37.622Z,91.60
2018-05-13T17:36:05.164Z,92.00
2018-05-13T17:38:32.669Z,92.40
2018-05-13T17:41:00.208Z,93.60
2018-05-13T17:43:27.725Z,93.40
2018-05-13T17:45:56.017Z,95.20
2018-05-13T17:48:23.530Z,95.20
2018-05-13T17:50:51.072Z,96.20
2018-05-13T17:53:18.593Z,97.80
2018-05-13T17:55:46.131Z,98.70
2018-05-13T17:58:14.420Z,99.90
2018-05-13T18:00:42.694Z,99.90
2018-05-13T18:03:11.142Z,99.90
2018-05-13T18:05:38.550Z,99.90
2018-05-13T18:08:06.061Z,99.90
2018-05-13T18:10:33.577Z,99.90
2018-05-13T18:13:01.114Z,99.90
2018-05-13T18:15:28.666Z,99.90
2018-05-13T18:17:56.955Z,99.90
2018-05-13T18:20:24.471Z,99.90
2018-05-13T18:22:52.002Z,99.90
2018-05-13T18:25:19.524Z,99.90
2018-05-13T18:27:47.369Z,99.90
2018-05-13T18:30:15.649Z,99.90
2018-05-13T18:32:43.926Z,99.90
2018-05-13T18:35:12.222Z,99.90
2018-05-13T18:37:39.728Z,99.90
2018-05-13T18:40:07.264Z,99.90
2018-05-13T18:42:34.782Z,99.90
2018-05-13T18:45:03.064Z,99.90
2018-05-13T18:47:31.362Z,99.90
2018-05-13T18:49:58.863Z,99.90
2018-05-13T18:52:26.402Z,99.90
2018-05-13T18:54:53.946Z,99.90
2018-05-13T18:57:21.456Z,99.90
2018-05-13T18:59:48.971Z,99.90
2018-05-13T19:02:16.481Z,99.90
2018-05-13T19:04:44.791Z,99.90
2018-05-13T19:07:12.312Z,99.90
2018-05-13T19:09:39.826Z,99.90
2018-05-13T19:12:07.338Z,99.90
2018-05-13T19:14:35.610Z,99.90
2018-05-13T19:17:03.926Z,99.90
2018-05-13T19:19:31.433Z,99.90
2018-05-13T19:21:58.960Z,99.90
2018-05-13T19:24:26.472Z,99.90
2018-05-13T19:26:54.753Z,99.90
2018-05-13T19:29:23.044Z,99.90
2018-05-13T19:31:50.549Z,99.90
2018-05-13T19:34:18.057Z,99.90
2018-05-13T19:36:45.633Z,99.90
2018-05-13T19:39:13.887Z,99.90
2018-05-13T19:41:41.430Z,99.90
2018-05-13T19:44:09.725Z,99.90
2018-05-13T19:46:37.241Z,99.90
2018-05-13T19:49:04.776Z,99.60
2018-05-13T19:51:32.297Z,99.90
2018-05-13T19:54:00.601Z,99.90
2018-05-13T19:56:28.097Z,99.90
2018-05-13T19:58:55.616Z,99.90
2018-05-13T20:01:23.133Z,99.90
2018-05-13T20:03:51.504Z,99.90
2018-05-13T20:06:18.984Z,99.90
2018-05-13T20:08:46.544Z,99.90
2018-05-13T20:11:14.144Z,99.90
2018-05-13T20:13:41.689Z,99.90
2018-05-13T20:16:09.197Z,99.90
2018-05-13T20:18:37.499Z,99.90
2018-05-13T20:21:05.765Z,99.90
2018-05-13T20:23:34.059Z,99.90
2018-05-13T20:26:01.588Z,99.90
2018-05-13T20:28:29.095Z,99.90
2018-05-13T20:30:56.633Z,99.90
2018-05-13T20:33:24.139Z,99.90
2018-05-13T20:35:51.700Z,99.90
2018-05-13T20:38:19.198Z,99.90
2018-05-13T20:40:47.474Z,99.90
2018-05-13T20:43:15.042Z,99.90
2018-05-13T20:45:42.540Z,99.90
2018-05-13T20:48:10.813Z,99.90
2018-05-13T20:50:38.359Z,99.90
2018-05-13T20:53:05.869Z,99.90
2018-05-13T20:55:33.414Z,99.90
2018-05-13T20:58:00.924Z,99.90
2018-05-13T21:00:28.433Z,99.90
2018-05-13T21:02:55.977Z,99.90
2018-05-13T21:05:23.555Z,99.90
2018-05-13T21:07:51.058Z,99.90
2018-05-13T21:10:18.563Z,99.90
2018-05-13T21:12:46.088Z,99.90
2018-05-13T21:15:13.607Z,99.90
2018-05-13T21:17:41.891Z,99.90
2018-05-13T21:20:10.218Z,99.90
2018-05-13T21:22:37.743Z,99.90
2018-05-13T21:25:05.285Z,99.90
2018-05-13T21:27:33.590Z,99.90
2018-05-13T21:30:01.118Z,99.90
2018-05-13T21:32:29.435Z,99.90
2018-05-13T21:34:56.941Z,99.90
2018-05-13T21:37:25.216Z,99.90
2018-05-13T21:39:52.748Z,99.90
2018-05-13T21:42:20.277Z,99.90
2018-05-13T21:44:47.814Z,99.90
2018-05-13T21:47:15.372Z,99.90
2018-05-13T21:49:43.656Z,99.90
2018-05-13T21:52:11.191Z,99.90
2018-05-13T21:54:39.580Z,99.90
2018-05-13T21:57:07.039Z,99.90
2018-05-13T21:59:34.586Z,99.90
2018-05-13T22:02:02.882Z,99.90
2018-05-13T22:04:30.413Z,99.90
2018-05-13T22:06:57.930Z,99.90
2018-05-13T22:09:25.489Z,99.90
2018-05-13T22:11:53.006Z,99.90
2018-05-13T22:14:21.287Z,99.90
2018-05-13T22:16:49.584Z,99.90
2018-05-13T22:19:17.091Z,99.90
2018-05-13T22:21:44.620Z,99.90
2018-05-13T22:24:12.142Z,99.90
2018-05-13T22:26:40.414Z,99.90
2018-05-13T22:29:08.705Z,99.90
2018-05-13T22:31:36.245Z,99.90
2018-05-13T22:34:04.560Z,99.90
2018-05-13T22:36:32.150Z,99.90
2018-05-13T22:39:00.369Z,99.90
2018-05-13T22:41:28.687Z,99.90
2018-05-13T22:43:56.195Z,99.90
2018-05-13T22:46:24.495Z,99.90
2018-05-13T22:48:52.031Z,99.90
2018-05-13T22:51:20.322Z,99.90
2018-05-13T22:53:47.878Z,99.90
2018-05-13T22:56:16.152Z,99.90
2018-05-13T22:58:44.439Z,99.90
2018-05-13T23:01:11.955Z,99.90
2018-05-13T23:03:39.465Z,99.90
2018-05-13T23:06:07.021Z,99.90
2018-05-13T23:08:34.542Z,99.90
2018-05-13T23:11:02.091Z,99.90
2018-05-13T23:13:29.603Z,99.90
2018-05-13T23:15:57.388Z,99.90
2018-05-13T23:18:24.935Z,99.90
2018-05-13T23:20:52.446Z,99.90
2018-05-13T23:23:20.720Z,99.90
2018-05-13T23:25:49.037Z,99.90
2018-05-13T23:28:16.549Z,99.90
2018-05-13T23:30:44.858Z,99.90
2018-05-13T23:33:12.378Z,99.90
2018-05-13T23:35:39.880Z,99.90
2018-05-13T23:38:07.399Z,99.90
2018-05-13T23:40:34.928Z,99.90
2018-05-13T23:43:02.446Z,99.90
2018-05-13T23:45:29.957Z,99.90
2018-05-13T23:47:57.486Z,99.90
2018-05-13T23:50:25.043Z,99.90
2018-05-13T23:52:52.553Z,99.90
2018-05-13T23:55:20.090Z,99.90
